sensor_id;sensor_type;location;lat;lon;timestamp;temperature;humidity
65378;SHT31;51982;51.042;13.806;2022-11-21T00:00:53;2.96;83.27
65378;SHT31;51982;51.042;13.806;2022-11-21T00:03:19;2.91;83.46
65378;SHT31;51982;51.042;13.806;2022-11-21T00:05:46;2.94;83.55
65378;SHT31;51982;51.042;13.806;2022-11-21T00:08:14;2.94;83.74
65378;SHT31;51982;51.042;13.806;2022-11-21T00:10:39;2.98;84.10
65378;SHT31;51982;51.042;13.806;2022-11-21T00:13:05;3.00;83.76
65378;SHT31;51982;51.042;13.806;2022-11-21T00:15:32;3.03;83.28
65378;SHT31;51982;51.042;13.806;2022-11-21T00:18:01;3.04;83.32
65378;SHT31;51982;51.042;13.806;2022-11-21T00:20:26;3.04;83.37
65378;SHT31;51982;51.042;13.806;2022-11-21T00:22:51;3.11;83.26
65378;SHT31;51982;51.042;13.806;2022-11-21T00:25:17;3.12;83.07
65378;SHT31;51982;51.042;13.806;2022-11-21T00:27:43;3.14;82.98
65378;SHT31;51982;51.042;13.806;2022-11-21T00:30:09;3.15;82.92
65378;SHT31;51982;51.042;13.806;2022-11-21T00:32:34;3.14;82.84
65378;SHT31;51982;51.042;13.806;2022-11-21T00:35:00;3.17;82.93
65378;SHT31;51982;51.042;13.806;2022-11-21T00:37:25;3.22;82.83
65378;SHT31;51982;51.042;13.806;2022-11-21T00:39:51;3.20;82.56
65378;SHT31;51982;51.042;13.806;2022-11-21T00:42:16;3.18;82.60
65378;SHT31;51982;51.042;13.806;2022-11-21T00:44:41;3.17;82.78
65378;SHT31;51982;51.042;13.806;2022-11-21T00:47:06;3.14;82.71
65378;SHT31;51982;51.042;13.806;2022-11-21T00:49:32;3.15;82.73
65378;SHT31;51982;51.042;13.806;2022-11-21T00:51:57;3.14;82.74
65378;SHT31;51982;51.042;13.806;2022-11-21T00:54:22;3.12;82.98
65378;SHT31;51982;51.042;13.806;2022-11-21T00:56:48;3.18;82.93
65378;SHT31;51982;51.042;13.806;2022-11-21T00:59:13;3.21;83.01
65378;SHT31;51982;51.042;13.806;2022-11-21T01:01:38;3.24;82.97
65378;SHT31;51982;51.042;13.806;2022-11-21T01:04:04;3.28;83.02
65378;SHT31;51982;51.042;13.806;2022-11-21T01:06:29;3.30;82.78
65378;SHT31;51982;51.042;13.806;2022-11-21T01:08:55;3.31;82.76
65378;SHT31;51982;51.042;13.806;2022-11-21T01:11:20;3.36;82.89
65378;SHT31;51982;51.042;13.806;2022-11-21T01:13:47;3.41;82.90
65378;SHT31;51982;51.042;13.806;2022-11-21T01:16:15;3.41;82.92
65378;SHT31;51982;51.042;13.806;2022-11-21T01:18:41;3.41;83.23
65378;SHT31;51982;51.042;13.806;2022-11-21T01:21:15;3.39;83.40
65378;SHT31;51982;51.042;13.806;2022-11-21T01:23:41;3.42;83.52
65378;SHT31;51982;51.042;13.806;2022-11-21T01:26:17;3.41;83.64
65378;SHT31;51982;51.042;13.806;2022-11-21T01:28:43;3.42;83.94
65378;SHT31;51982;51.042;13.806;2022-11-21T01:31:31;3.38;84.10
65378;SHT31;51982;51.042;13.806;2022-11-21T01:33:57;3.45;84.23
65378;SHT31;51982;51.042;13.806;2022-11-21T01:36:26;3.45;84.35
65378;SHT31;51982;51.042;13.806;2022-11-21T01:38:53;3.52;84.33
65378;SHT31;51982;51.042;13.806;2022-11-21T01:41:22;3.56;84.17
65378;SHT31;51982;51.042;13.806;2022-11-21T01:43:48;3.61;84.32
65378;SHT31;51982;51.042;13.806;2022-11-21T01:46:16;3.62;84.40
65378;SHT31;51982;51.042;13.806;2022-11-21T01:48:59;3.65;84.43
65378;SHT31;51982;51.042;13.806;2022-11-21T01:51:33;3.71;84.56
65378;SHT31;51982;51.042;13.806;2022-11-21T01:54:05;3.72;84.39
65378;SHT31;51982;51.042;13.806;2022-11-21T01:56:37;3.76;84.40
65378;SHT31;51982;51.042;13.806;2022-11-21T01:59:08;3.81;84.36
65378;SHT31;51982;51.042;13.806;2022-11-21T02:01:36;3.81;84.55
65378;SHT31;51982;51.042;13.806;2022-11-21T02:04:02;3.81;84.45
65378;SHT31;51982;51.042;13.806;2022-11-21T02:06:29;3.82;84.22
65378;SHT31;51982;51.042;13.806;2022-11-21T02:08:59;3.87;84.15
65378;SHT31;51982;51.042;13.806;2022-11-21T02:11:38;3.85;84.15
65378;SHT31;51982;51.042;13.806;2022-11-21T02:14:04;3.90;84.26
65378;SHT31;51982;51.042;13.806;2022-11-21T02:16:30;3.89;84.35
65378;SHT31;51982;51.042;13.806;2022-11-21T02:18:57;3.96;84.39
65378;SHT31;51982;51.042;13.806;2022-11-21T02:26:47;4.02;85.18
65378;SHT31;51982;51.042;13.806;2022-11-21T02:29:14;4.00;85.08
65378;SHT31;51982;51.042;13.806;2022-11-21T02:31:39;4.03;85.44
65378;SHT31;51982;51.042;13.806;2022-11-21T02:34:04;4.04;85.58
65378;SHT31;51982;51.042;13.806;2022-11-21T02:36:37;4.06;85.57
65378;SHT31;51982;51.042;13.806;2022-11-21T02:39:04;4.10;85.44
65378;SHT31;51982;51.042;13.806;2022-11-21T02:41:32;4.11;85.81
65378;SHT31;51982;51.042;13.806;2022-11-21T02:44:04;4.14;85.65
65378;SHT31;51982;51.042;13.806;2022-11-21T02:46:32;4.14;85.77
65378;SHT31;51982;51.042;13.806;2022-11-21T02:48:59;4.17;85.95
65378;SHT31;51982;51.042;13.806;2022-11-21T02:51:24;4.18;85.95
65378;SHT31;51982;51.042;13.806;2022-11-21T02:53:50;4.21;86.17
65378;SHT31;51982;51.042;13.806;2022-11-21T02:56:15;4.26;86.00
65378;SHT31;51982;51.042;13.806;2022-11-21T02:58:40;4.24;86.43
65378;SHT31;51982;51.042;13.806;2022-11-21T03:01:05;4.24;86.75
65378;SHT31;51982;51.042;13.806;2022-11-21T03:03:31;4.26;86.63
65378;SHT31;51982;51.042;13.806;2022-11-21T03:05:56;4.27;86.73
65378;SHT31;51982;51.042;13.806;2022-11-21T03:08:21;4.30;86.78
65378;SHT31;51982;51.042;13.806;2022-11-21T03:10:46;4.30;86.96
65378;SHT31;51982;51.042;13.806;2022-11-21T03:13:12;4.32;86.96
65378;SHT31;51982;51.042;13.806;2022-11-21T03:15:37;4.32;86.93
65378;SHT31;51982;51.042;13.806;2022-11-21T03:18:03;4.32;87.06
65378;SHT31;51982;51.042;13.806;2022-11-21T03:20:29;4.33;86.91
65378;SHT31;51982;51.042;13.806;2022-11-21T03:22:54;4.34;86.62
65378;SHT31;51982;51.042;13.806;2022-11-21T03:25:20;4.36;86.69
65378;SHT31;51982;51.042;13.806;2022-11-21T03:27:45;4.37;86.81
65378;SHT31;51982;51.042;13.806;2022-11-21T03:30:11;4.38;87.18
65378;SHT31;51982;51.042;13.806;2022-11-21T03:32:36;4.40;87.37
65378;SHT31;51982;51.042;13.806;2022-11-21T03:35:02;4.40;87.29
65378;SHT31;51982;51.042;13.806;2022-11-21T03:37:27;4.38;86.97
65378;SHT31;51982;51.042;13.806;2022-11-21T03:39:52;4.40;87.19
65378;SHT31;51982;51.042;13.806;2022-11-21T03:42:18;4.44;87.56
65378;SHT31;51982;51.042;13.806;2022-11-21T03:44:43;4.38;87.88
65378;SHT31;51982;51.042;13.806;2022-11-21T03:47:08;4.45;87.61
65378;SHT31;51982;51.042;13.806;2022-11-21T03:49:33;4.48;87.64
65378;SHT31;51982;51.042;13.806;2022-11-21T03:51:59;4.45;87.97
65378;SHT31;51982;51.042;13.806;2022-11-21T03:54:24;4.48;88.37
65378;SHT31;51982;51.042;13.806;2022-11-21T03:56:49;4.48;88.11
65378;SHT31;51982;51.042;13.806;2022-11-21T03:59:14;4.54;88.05
65378;SHT31;51982;51.042;13.806;2022-11-21T04:01:40;4.54;88.03
65378;SHT31;51982;51.042;13.806;2022-11-21T04:04:05;4.53;88.41
65378;SHT31;51982;51.042;13.806;2022-11-21T04:06:30;4.55;88.40
65378;SHT31;51982;51.042;13.806;2022-11-21T04:08:56;4.57;88.29
65378;SHT31;51982;51.042;13.806;2022-11-21T04:11:21;4.55;88.50
65378;SHT31;51982;51.042;13.806;2022-11-21T04:13:48;4.58;88.55
65378;SHT31;51982;51.042;13.806;2022-11-21T04:16:14;4.60;88.59
65378;SHT31;51982;51.042;13.806;2022-11-21T04:18:39;4.58;88.71
65378;SHT31;51982;51.042;13.806;2022-11-21T04:21:06;4.55;88.91
65378;SHT31;51982;51.042;13.806;2022-11-21T04:23:32;4.58;88.88
65378;SHT31;51982;51.042;13.806;2022-11-21T04:25:58;4.65;88.54
65378;SHT31;51982;51.042;13.806;2022-11-21T04:28:24;4.69;88.47
65378;SHT31;51982;51.042;13.806;2022-11-21T04:30:50;4.74;88.39
65378;SHT31;51982;51.042;13.806;2022-11-21T04:33:16;4.74;88.48
65378;SHT31;51982;51.042;13.806;2022-11-21T04:35:42;4.75;88.45
65378;SHT31;51982;51.042;13.806;2022-11-21T04:38:09;4.75;88.44
65378;SHT31;51982;51.042;13.806;2022-11-21T04:40:35;4.77;88.52
65378;SHT31;51982;51.042;13.806;2022-11-21T04:43:01;4.77;88.65
65378;SHT31;51982;51.042;13.806;2022-11-21T04:45:26;4.77;88.69
65378;SHT31;51982;51.042;13.806;2022-11-21T04:47:51;4.81;88.69
65378;SHT31;51982;51.042;13.806;2022-11-21T04:50:17;4.81;88.78
65378;SHT31;51982;51.042;13.806;2022-11-21T04:52:48;4.81;88.58
65378;SHT31;51982;51.042;13.806;2022-11-21T04:55:14;4.82;88.52
65378;SHT31;51982;51.042;13.806;2022-11-21T04:57:39;4.84;88.48
65378;SHT31;51982;51.042;13.806;2022-11-21T05:00:05;4.85;88.39
65378;SHT31;51982;51.042;13.806;2022-11-21T05:02:31;4.87;88.40
65378;SHT31;51982;51.042;13.806;2022-11-21T05:04:57;4.82;88.35
65378;SHT31;51982;51.042;13.806;2022-11-21T05:07:22;4.81;88.42
65378;SHT31;51982;51.042;13.806;2022-11-21T05:09:47;4.82;88.25
65378;SHT31;51982;51.042;13.806;2022-11-21T05:12:12;4.89;88.14
65378;SHT31;51982;51.042;13.806;2022-11-21T05:14:56;4.89;87.95
65378;SHT31;51982;51.042;13.806;2022-11-21T05:17:22;4.92;87.95
65378;SHT31;51982;51.042;13.806;2022-11-21T05:19:47;4.92;88.02
65378;SHT31;51982;51.042;13.806;2022-11-21T05:22:12;4.89;88.06
65378;SHT31;51982;51.042;13.806;2022-11-21T05:24:38;4.89;88.20
65378;SHT31;51982;51.042;13.806;2022-11-21T05:27:03;4.91;88.37
65378;SHT31;51982;51.042;13.806;2022-11-21T05:29:29;4.95;88.40
65378;SHT31;51982;51.042;13.806;2022-11-21T05:31:54;4.95;88.28
65378;SHT31;51982;51.042;13.806;2022-11-21T05:34:20;4.95;88.32
65378;SHT31;51982;51.042;13.806;2022-11-21T05:36:45;4.81;88.73
65378;SHT31;51982;51.042;13.806;2022-11-21T05:39:10;4.81;88.84
65378;SHT31;51982;51.042;13.806;2022-11-21T05:41:35;4.84;88.85
65378;SHT31;51982;51.042;13.806;2022-11-21T05:44:01;4.85;88.96
65378;SHT31;51982;51.042;13.806;2022-11-21T05:46:26;4.87;88.94
65378;SHT31;51982;51.042;13.806;2022-11-21T05:48:52;4.88;88.93
65378;SHT31;51982;51.042;13.806;2022-11-21T05:51:19;4.82;89.12
65378;SHT31;51982;51.042;13.806;2022-11-21T05:53:45;4.81;89.30
65378;SHT31;51982;51.042;13.806;2022-11-21T05:56:13;4.88;89.13
65378;SHT31;51982;51.042;13.806;2022-11-21T05:58:38;4.92;89.09
65378;SHT31;51982;51.042;13.806;2022-11-21T06:01:05;4.92;89.14
65378;SHT31;51982;51.042;13.806;2022-11-21T06:03:33;4.95;89.16
65378;SHT31;51982;51.042;13.806;2022-11-21T06:06:10;4.98;89.12
65378;SHT31;51982;51.042;13.806;2022-11-21T06:08:45;4.96;88.98
65378;SHT31;51982;51.042;13.806;2022-11-21T06:11:13;4.96;89.12
65378;SHT31;51982;51.042;13.806;2022-11-21T06:13:39;4.93;89.53
65378;SHT31;51982;51.042;13.806;2022-11-21T06:16:09;4.91;89.59
65378;SHT31;51982;51.042;13.806;2022-11-21T06:18:37;4.93;89.57
65378;SHT31;51982;51.042;13.806;2022-11-21T06:21:08;4.91;89.66
65378;SHT31;51982;51.042;13.806;2022-11-21T06:23:34;4.87;89.94
65378;SHT31;51982;51.042;13.806;2022-11-21T06:26:02;4.92;89.81
65378;SHT31;51982;51.042;13.806;2022-11-21T06:28:36;4.91;89.79
65378;SHT31;51982;51.042;13.806;2022-11-21T06:31:07;4.95;89.79
65378;SHT31;51982;51.042;13.806;2022-11-21T06:33:33;4.96;89.83
65378;SHT31;51982;51.042;13.806;2022-11-21T06:36:04;4.99;89.52
65378;SHT31;51982;51.042;13.806;2022-11-21T06:38:30;5.05;89.54
65378;SHT31;51982;51.042;13.806;2022-11-21T06:40:55;5.11;89.50
65378;SHT31;51982;51.042;13.806;2022-11-21T06:43:20;5.06;89.61
65378;SHT31;51982;51.042;13.806;2022-11-21T06:45:45;4.99;89.72
65378;SHT31;51982;51.042;13.806;2022-11-21T06:48:11;4.98;89.81
65378;SHT31;51982;51.042;13.806;2022-11-21T06:50:36;5.04;89.73
65378;SHT31;51982;51.042;13.806;2022-11-21T06:53:02;5.08;89.63
65378;SHT31;51982;51.042;13.806;2022-11-21T06:55:29;5.08;89.54
65378;SHT31;51982;51.042;13.806;2022-11-21T06:57:58;5.05;89.78
65378;SHT31;51982;51.042;13.806;2022-11-21T07:00:25;4.96;90.10
65378;SHT31;51982;51.042;13.806;2022-11-21T07:02:52;4.99;90.13
65378;SHT31;51982;51.042;13.806;2022-11-21T07:05:17;4.99;90.30
65378;SHT31;51982;51.042;13.806;2022-11-21T07:07:42;4.96;90.21
65378;SHT31;51982;51.042;13.806;2022-11-21T07:10:08;4.96;90.46
65378;SHT31;51982;51.042;13.806;2022-11-21T07:12:34;4.95;90.40
65378;SHT31;51982;51.042;13.806;2022-11-21T07:15:18;4.92;90.78
65378;SHT31;51982;51.042;13.806;2022-11-21T07:17:43;4.89;90.69
65378;SHT31;51982;51.042;13.806;2022-11-21T07:20:09;4.87;90.73
65378;SHT31;51982;51.042;13.806;2022-11-21T07:22:34;4.88;90.34
65378;SHT31;51982;51.042;13.806;2022-11-21T07:25:00;4.92;90.16
65378;SHT31;51982;51.042;13.806;2022-11-21T07:27:25;4.91;90.03
65378;SHT31;51982;51.042;13.806;2022-11-21T07:29:50;4.95;89.85
65378;SHT31;51982;51.042;13.806;2022-11-21T07:32:16;4.87;89.91
65378;SHT31;51982;51.042;13.806;2022-11-21T07:34:41;4.81;89.79
65378;SHT31;51982;51.042;13.806;2022-11-21T07:37:06;4.81;89.52
65378;SHT31;51982;51.042;13.806;2022-11-21T07:39:32;4.79;89.41
65378;SHT31;51982;51.042;13.806;2022-11-21T07:41:57;4.81;89.25
65378;SHT31;51982;51.042;13.806;2022-11-21T07:44:22;4.71;89.08
65378;SHT31;51982;51.042;13.806;2022-11-21T07:46:47;4.69;88.93
65378;SHT31;51982;51.042;13.806;2022-11-21T07:49:13;4.65;88.69
65378;SHT31;51982;51.042;13.806;2022-11-21T07:51:38;4.64;88.77
65378;SHT31;51982;51.042;13.806;2022-11-21T07:54:03;4.61;88.35
65378;SHT31;51982;51.042;13.806;2022-11-21T07:56:28;4.60;88.38
65378;SHT31;51982;51.042;13.806;2022-11-21T07:58:54;4.53;88.06
65378;SHT31;51982;51.042;13.806;2022-11-21T08:01:19;4.48;87.76
65378;SHT31;51982;51.042;13.806;2022-11-21T08:03:45;4.51;88.02
65378;SHT31;51982;51.042;13.806;2022-11-21T08:06:12;4.47;87.58
65378;SHT31;51982;51.042;13.806;2022-11-21T08:08:37;4.47;87.40
65378;SHT31;51982;51.042;13.806;2022-11-21T08:11:04;4.32;86.93
65378;SHT31;51982;51.042;13.806;2022-11-21T08:13:29;4.30;86.83
65378;SHT31;51982;51.042;13.806;2022-11-21T08:15:55;4.21;86.35
65378;SHT31;51982;51.042;13.806;2022-11-21T08:18:20;4.21;86.45
65378;SHT31;51982;51.042;13.806;2022-11-21T08:20:45;4.20;86.32
65378;SHT31;51982;51.042;13.806;2022-11-21T08:23:11;4.14;85.82
65378;SHT31;51982;51.042;13.806;2022-11-21T08:25:37;4.09;85.89
65378;SHT31;51982;51.042;13.806;2022-11-21T08:28:03;4.04;85.78
65378;SHT31;51982;51.042;13.806;2022-11-21T08:30:29;4.10;86.22
65378;SHT31;51982;51.042;13.806;2022-11-21T08:32:56;3.99;86.45
65378;SHT31;51982;51.042;13.806;2022-11-21T08:35:21;3.99;86.55
65378;SHT31;51982;51.042;13.806;2022-11-21T08:37:47;3.90;85.76
65378;SHT31;51982;51.042;13.806;2022-11-21T08:40:12;3.94;86.19
65378;SHT31;51982;51.042;13.806;2022-11-21T08:42:37;3.83;85.38
65378;SHT31;51982;51.042;13.806;2022-11-21T08:45:04;3.83;85.59
65378;SHT31;51982;51.042;13.806;2022-11-21T08:47:32;3.73;84.87
65378;SHT31;51982;51.042;13.806;2022-11-21T08:49:57;3.78;85.10
65378;SHT31;51982;51.042;13.806;2022-11-21T08:52:22;3.85;85.43
65378;SHT31;51982;51.042;13.806;2022-11-21T08:54:48;3.99;86.65
65378;SHT31;51982;51.042;13.806;2022-11-21T08:57:13;3.96;87.23
65378;SHT31;51982;51.042;13.806;2022-11-21T08:59:39;3.82;87.57
65378;SHT31;51982;51.042;13.806;2022-11-21T09:02:04;3.75;87.01
65378;SHT31;51982;51.042;13.806;2022-11-21T09:04:29;3.75;87.15
65378;SHT31;51982;51.042;13.806;2022-11-21T09:06:54;3.65;86.41
65378;SHT31;51982;51.042;13.806;2022-11-21T09:09:20;3.73;86.30
65378;SHT31;51982;51.042;13.806;2022-11-21T09:11:45;3.79;85.86
65378;SHT31;51982;51.042;13.806;2022-11-21T09:14:10;3.75;85.41
65378;SHT31;51982;51.042;13.806;2022-11-21T09:16:55;3.71;84.42
65378;SHT31;51982;51.042;13.806;2022-11-21T09:19:39;3.79;84.52
65378;SHT31;51982;51.042;13.806;2022-11-21T09:22:04;3.82;84.42
65378;SHT31;51982;51.042;13.806;2022-11-21T09:24:29;3.99;84.85
65378;SHT31;51982;51.042;13.806;2022-11-21T09:26:54;3.99;83.69
65378;SHT31;51982;51.042;13.806;2022-11-21T09:29:20;3.99;84.17
65378;SHT31;51982;51.042;13.806;2022-11-21T09:31:45;3.97;84.21
65378;SHT31;51982;51.042;13.806;2022-11-21T09:34:10;4.00;83.87
65378;SHT31;51982;51.042;13.806;2022-11-21T09:36:36;4.03;84.39
65378;SHT31;51982;51.042;13.806;2022-11-21T09:39:02;4.10;84.31
65378;SHT31;51982;51.042;13.806;2022-11-21T09:41:35;3.97;84.09
65378;SHT31;51982;51.042;13.806;2022-11-21T09:47:28;3.78;83.99
65378;SHT31;51982;51.042;13.806;2022-11-21T09:50:01;3.83;84.16
65378;SHT31;51982;51.042;13.806;2022-11-21T09:52:31;3.86;84.35
65378;SHT31;51982;51.042;13.806;2022-11-21T09:55:03;3.85;84.38
65378;SHT31;51982;51.042;13.806;2022-11-21T09:57:31;3.92;84.60
65378;SHT31;51982;51.042;13.806;2022-11-21T10:00:02;3.82;84.15
65378;SHT31;51982;51.042;13.806;2022-11-21T10:02:28;3.85;84.14
65378;SHT31;51982;51.042;13.806;2022-11-21T10:04:54;3.89;84.61
65378;SHT31;51982;51.042;13.806;2022-11-21T10:07:27;3.90;84.25
65378;SHT31;51982;51.042;13.806;2022-11-21T10:13:05;3.87;83.81
65378;SHT31;51982;51.042;13.806;2022-11-21T10:21:40;3.92;84.21
65378;SHT31;51982;51.042;13.806;2022-11-21T10:29:37;3.97;84.48
65378;SHT31;51982;51.042;13.806;2022-11-21T10:32:26;4.18;84.71
65378;SHT31;51982;51.042;13.806;2022-11-21T10:34:56;4.16;83.99
65378;SHT31;51982;51.042;13.806;2022-11-21T10:40:19;4.20;84.02
65378;SHT31;51982;51.042;13.806;2022-11-21T10:42:52;4.16;83.93
65378;SHT31;51982;51.042;13.806;2022-11-21T10:45:19;4.18;83.68
65378;SHT31;51982;51.042;13.806;2022-11-21T10:47:46;4.17;83.78
65378;SHT31;51982;51.042;13.806;2022-11-21T10:52:48;4.14;83.29
65378;SHT31;51982;51.042;13.806;2022-11-21T10:55:15;4.13;83.24
65378;SHT31;51982;51.042;13.806;2022-11-21T10:57:44;4.16;83.23
65378;SHT31;51982;51.042;13.806;2022-11-21T11:02:40;4.23;83.96
65378;SHT31;51982;51.042;13.806;2022-11-21T11:05:20;4.36;83.91
65378;SHT31;51982;51.042;13.806;2022-11-21T11:10:25;4.47;83.12
65378;SHT31;51982;51.042;13.806;2022-11-21T11:12:51;4.54;83.18
65378;SHT31;51982;51.042;13.806;2022-11-21T11:15:36;4.53;82.75
65378;SHT31;51982;51.042;13.806;2022-11-21T11:18:05;4.54;83.11
65378;SHT31;51982;51.042;13.806;2022-11-21T11:20:36;4.55;82.66
65378;SHT31;51982;51.042;13.806;2022-11-21T11:23:24;4.61;82.98
65378;SHT31;51982;51.042;13.806;2022-11-21T11:28:20;4.57;82.86
65378;SHT31;51982;51.042;13.806;2022-11-21T11:30:48;4.61;82.63
65378;SHT31;51982;51.042;13.806;2022-11-21T11:33:36;4.54;81.76
65378;SHT31;51982;51.042;13.806;2022-11-21T11:36:35;4.64;82.62
65378;SHT31;51982;51.042;13.806;2022-11-21T11:39:09;4.84;83.04
65378;SHT31;51982;51.042;13.806;2022-11-21T11:45:15;4.89;82.26
65378;SHT31;51982;51.042;13.806;2022-11-21T11:48:00;4.92;81.58
65378;SHT31;51982;51.042;13.806;2022-11-21T11:50:31;4.78;81.51
65378;SHT31;51982;51.042;13.806;2022-11-21T11:53:17;4.88;82.00
65378;SHT31;51982;51.042;13.806;2022-11-21T12:01:16;5.00;82.44
65378;SHT31;51982;51.042;13.806;2022-11-21T12:04:03;4.92;81.73
65378;SHT31;51982;51.042;13.806;2022-11-21T12:06:33;4.93;81.80
65378;SHT31;51982;51.042;13.806;2022-11-21T12:09:19;4.92;82.20
65378;SHT31;51982;51.042;13.806;2022-11-21T12:11:58;5.00;82.41
65378;SHT31;51982;51.042;13.806;2022-11-21T12:20:27;5.00;82.04
65378;SHT31;51982;51.042;13.806;2022-11-21T12:22:54;5.08;81.97
65378;SHT31;51982;51.042;13.806;2022-11-21T12:25:24;5.15;82.19
65378;SHT31;51982;51.042;13.806;2022-11-21T12:27:53;5.16;81.77
65378;SHT31;51982;51.042;13.806;2022-11-21T12:30:52;5.00;81.03
65378;SHT31;51982;51.042;13.806;2022-11-21T12:33:22;5.06;81.68
65378;SHT31;51982;51.042;13.806;2022-11-21T12:35:56;5.02;81.81
65378;SHT31;51982;51.042;13.806;2022-11-21T12:44:26;5.04;81.93
65378;SHT31;51982;51.042;13.806;2022-11-21T12:47:23;5.05;81.70
65378;SHT31;51982;51.042;13.806;2022-11-21T12:50:05;5.06;81.68
65378;SHT31;51982;51.042;13.806;2022-11-21T12:53:01;5.09;81.75
65378;SHT31;51982;51.042;13.806;2022-11-21T12:55:54;5.06;81.71
65378;SHT31;51982;51.042;13.806;2022-11-21T12:58:35;5.11;81.84
65378;SHT31;51982;51.042;13.806;2022-11-21T13:01:28;5.09;81.61
65378;SHT31;51982;51.042;13.806;2022-11-21T13:04:05;5.08;81.88
65378;SHT31;51982;51.042;13.806;2022-11-21T13:06:37;5.13;81.95
65378;SHT31;51982;51.042;13.806;2022-11-21T13:09:06;5.15;81.51
65378;SHT31;51982;51.042;13.806;2022-11-21T13:11:52;5.08;81.44
65378;SHT31;51982;51.042;13.806;2022-11-21T13:14:36;5.15;81.91
65378;SHT31;51982;51.042;13.806;2022-11-21T13:20:12;5.25;81.38
65378;SHT31;51982;51.042;13.806;2022-11-21T13:25:36;5.20;81.77
65378;SHT31;51982;51.042;13.806;2022-11-21T13:30:46;5.19;81.58
65378;SHT31;51982;51.042;13.806;2022-11-21T13:55:38;5.20;80.93
65378;SHT31;51982;51.042;13.806;2022-11-21T13:58:37;5.16;81.02
65378;SHT31;51982;51.042;13.806;2022-11-21T14:01:10;5.15;81.16
65378;SHT31;51982;51.042;13.806;2022-11-21T14:06:38;5.11;81.18
65378;SHT31;51982;51.042;13.806;2022-11-21T14:09:30;5.06;81.41
65378;SHT31;51982;51.042;13.806;2022-11-21T14:12:02;5.08;81.68
65378;SHT31;51982;51.042;13.806;2022-11-21T14:14:32;5.04;81.79
65378;SHT31;51982;51.042;13.806;2022-11-21T14:17:26;5.00;82.01
65378;SHT31;51982;51.042;13.806;2022-11-21T14:19:56;4.95;82.41
65378;SHT31;51982;51.042;13.806;2022-11-21T14:22:38;4.93;82.07
65378;SHT31;51982;51.042;13.806;2022-11-21T14:25:07;4.93;82.25
65378;SHT31;51982;51.042;13.806;2022-11-21T14:27:37;4.92;82.42
65378;SHT31;51982;51.042;13.806;2022-11-21T14:30:03;4.89;82.71
65378;SHT31;51982;51.042;13.806;2022-11-21T14:32:30;4.88;82.71
65378;SHT31;51982;51.042;13.806;2022-11-21T14:35:09;4.84;82.76
65378;SHT31;51982;51.042;13.806;2022-11-21T14:37:39;4.87;82.86
65378;SHT31;51982;51.042;13.806;2022-11-21T14:40:05;4.81;82.94
65378;SHT31;51982;51.042;13.806;2022-11-21T14:42:35;4.85;83.01
65378;SHT31;51982;51.042;13.806;2022-11-21T14:45:15;4.87;82.81
65378;SHT31;51982;51.042;13.806;2022-11-21T14:47:46;4.87;82.83
65378;SHT31;51982;51.042;13.806;2022-11-21T14:50:32;4.78;82.72
65378;SHT31;51982;51.042;13.806;2022-11-21T14:52:59;4.78;82.87
65378;SHT31;51982;51.042;13.806;2022-11-21T14:55:30;4.77;83.15
65378;SHT31;51982;51.042;13.806;2022-11-21T14:57:57;4.79;83.11
65378;SHT31;51982;51.042;13.806;2022-11-21T15:00:25;4.74;82.99
65378;SHT31;51982;51.042;13.806;2022-11-21T15:02:58;4.64;83.09
65378;SHT31;51982;51.042;13.806;2022-11-21T15:05:33;4.71;83.16
65378;SHT31;51982;51.042;13.806;2022-11-21T15:07:59;4.71;83.25
65378;SHT31;51982;51.042;13.806;2022-11-21T15:10:29;4.67;83.47
65378;SHT31;51982;51.042;13.806;2022-11-21T15:13:00;4.72;83.32
65378;SHT31;51982;51.042;13.806;2022-11-21T15:15:32;4.69;83.44
65378;SHT31;51982;51.042;13.806;2022-11-21T15:18:01;4.68;83.59
65378;SHT31;51982;51.042;13.806;2022-11-21T15:20:27;4.69;83.45
65378;SHT31;51982;51.042;13.806;2022-11-21T15:22:55;4.68;83.45
65378;SHT31;51982;51.042;13.806;2022-11-21T15:25:24;4.65;83.50
65378;SHT31;51982;51.042;13.806;2022-11-21T15:27:51;4.60;83.72
65378;SHT31;51982;51.042;13.806;2022-11-21T15:30:31;4.62;83.47
65378;SHT31;51982;51.042;13.806;2022-11-21T15:33:00;4.55;83.47
65378;SHT31;51982;51.042;13.806;2022-11-21T15:36:12;4.57;83.67
65378;SHT31;51982;51.042;13.806;2022-11-21T15:40:59;4.50;83.50
65378;SHT31;51982;51.042;13.806;2022-11-21T15:44:34;4.44;83.71
65378;SHT31;51982;51.042;13.806;2022-11-21T15:46:40;4.50;83.90
65378;SHT31;51982;51.042;13.806;2022-11-21T15:49:10;4.54;83.74
65378;SHT31;51982;51.042;13.806;2022-11-21T15:54:04;4.54;83.58
65378;SHT31;51982;51.042;13.806;2022-11-21T15:56:30;4.55;83.55
65378;SHT31;51982;51.042;13.806;2022-11-21T15:58:56;4.58;83.60
65378;SHT31;51982;51.042;13.806;2022-11-21T16:01:23;4.57;83.73
65378;SHT31;51982;51.042;13.806;2022-11-21T16:03:56;4.57;83.72
65378;SHT31;51982;51.042;13.806;2022-11-21T16:06:22;4.55;83.70
65378;SHT31;51982;51.042;13.806;2022-11-21T16:08:48;4.58;83.64
65378;SHT31;51982;51.042;13.806;2022-11-21T16:11:21;4.51;83.79
65378;SHT31;51982;51.042;13.806;2022-11-21T16:13:48;4.54;83.72
65378;SHT31;51982;51.042;13.806;2022-11-21T16:16:14;4.57;83.64
65378;SHT31;51982;51.042;13.806;2022-11-21T16:18:39;4.58;83.72
65378;SHT31;51982;51.042;13.806;2022-11-21T16:21:06;4.57;83.57
65378;SHT31;51982;51.042;13.806;2022-11-21T16:23:33;4.60;83.50
65378;SHT31;51982;51.042;13.806;2022-11-21T16:25:58;4.61;83.70
65378;SHT31;51982;51.042;13.806;2022-11-21T16:28:24;4.60;83.53
65378;SHT31;51982;51.042;13.806;2022-11-21T16:30:49;4.62;83.48
65378;SHT31;51982;51.042;13.806;2022-11-21T16:33:14;4.65;83.56
65378;SHT31;51982;51.042;13.806;2022-11-21T16:35:39;4.67;83.56
65378;SHT31;51982;51.042;13.806;2022-11-21T16:38:11;4.71;83.49
65378;SHT31;51982;51.042;13.806;2022-11-21T16:40:37;4.68;83.42
65378;SHT31;51982;51.042;13.806;2022-11-21T16:43:09;4.69;83.45
65378;SHT31;51982;51.042;13.806;2022-11-21T16:45:36;4.68;83.31
65378;SHT31;51982;51.042;13.806;2022-11-21T16:48:02;4.68;83.46
65378;SHT31;51982;51.042;13.806;2022-11-21T16:50:30;4.69;83.52
65378;SHT31;51982;51.042;13.806;2022-11-21T16:52:56;4.69;83.54
65378;SHT31;51982;51.042;13.806;2022-11-21T16:55:21;4.69;83.42
65378;SHT31;51982;51.042;13.806;2022-11-21T16:57:46;4.72;83.30
65378;SHT31;51982;51.042;13.806;2022-11-21T17:00:12;4.71;83.35
65378;SHT31;51982;51.042;13.806;2022-11-21T17:02:37;4.72;83.39
65378;SHT31;51982;51.042;13.806;2022-11-21T17:05:03;4.77;83.44
65378;SHT31;51982;51.042;13.806;2022-11-21T17:07:30;4.77;83.44
65378;SHT31;51982;51.042;13.806;2022-11-21T17:09:55;4.75;83.59
65378;SHT31;51982;51.042;13.806;2022-11-21T17:12:21;4.75;83.51
65378;SHT31;51982;51.042;13.806;2022-11-21T17:14:47;4.74;83.48
65378;SHT31;51982;51.042;13.806;2022-11-21T17:17:13;4.78;83.63